createdAt,value
2018-11-02T00:00:53.045Z,999.84
2018-11-02T00:01:53.062Z,999.83
2018-11-02T00:02:53.015Z,999.93
2018-11-02T00:03:53.003Z,999.93
2018-11-02T00:04:53.010Z,999.96
2018-11-02T00:05:52.980Z,999.95
2018-11-02T00:06:52.979Z,999.95
2018-11-02T00:07:52.992Z,999.99
2018-11-02T00:08:52.948Z,1000.04
2018-11-02T00:09:52.943Z,1000.05
2018-11-02T00:10:52.924Z,1000.04
2018-11-02T00:11:52.920Z,1000.20
2018-11-02T00:12:52.904Z,1000.19
2018-11-02T00:13:52.914Z,1000.14
2018-11-02T00:14:52.877Z,1000.16
2018-11-02T00:15:52.863Z,1000.03
2018-11-02T00:16:52.861Z,1000.17
2018-11-02T00:17:52.846Z,1000.15
2018-11-02T00:18:52.886Z,1000.20
2018-11-02T00:19:52.816Z,1000.19
2018-11-02T00:20:52.810Z,1000.14
2018-11-02T00:21:52.798Z,1000.12
2018-11-02T00:22:52.790Z,1000.11
2018-11-02T00:23:52.772Z,1000.14
2018-11-02T00:24:52.809Z,1000.14
2018-11-02T00:25:52.756Z,1000.18
2018-11-02T00:26:52.735Z,1000.16
2018-11-02T00:27:52.733Z,1000.17
2018-11-02T00:28:52.711Z,1000.17
2018-11-02T00:29:52.705Z,1000.21
2018-11-02T00:30:52.722Z,1000.28
2018-11-02T00:31:52.828Z,1000.28
2018-11-02T00:32:52.676Z,1000.30
2018-11-02T00:33:52.662Z,1000.30
2018-11-02T00:34:52.645Z,1000.29
2018-11-02T00:35:52.636Z,1000.34
2018-11-02T00:36:52.647Z,1000.36
2018-11-02T00:37:52.610Z,1000.40
2018-11-02T00:38:52.599Z,1000.35
2018-11-02T00:39:52.587Z,1000.53
2018-11-02T00:40:52.577Z,1000.53
2018-11-02T00:41:52.591Z,1000.38
2018-11-02T00:42:52.559Z,1000.51
2018-11-02T00:43:52.585Z,1000.47
2018-11-02T00:44:52.537Z,1000.49
2018-11-02T00:45:52.522Z,1000.47
2018-11-02T00:46:52.507Z,1000.54
2018-11-02T00:47:52.534Z,1000.48
2018-11-02T00:48:52.482Z,1000.48
2018-11-02T00:49:52.475Z,1000.43
2018-11-02T00:50:52.464Z,1000.41
2018-11-02T00:51:52.454Z,1000.45
2018-11-02T00:52:52.438Z,1000.38
2018-11-02T00:53:52.443Z,1000.34
2018-11-02T00:54:52.422Z,1000.29
2018-11-02T00:55:52.403Z,1000.21
2018-11-02T00:56:52.395Z,1000.14
2018-11-02T00:57:52.389Z,1000.20
2018-11-02T00:58:52.394Z,1000.16
2018-11-02T00:59:52.356Z,1000.17
2018-11-02T01:00:52.349Z,1000.12
2018-11-02T01:01:52.337Z,1000.09
2018-11-02T01:02:52.324Z,1000.08
2018-11-02T01:03:52.318Z,1000.06
2018-11-02T01:04:52.319Z,1000.11
2018-11-02T01:05:52.291Z,1000.08
2018-11-02T01:06:52.278Z,1000.08
2018-11-02T01:07:52.272Z,1000.15
2018-11-02T01:08:52.250Z,1000.09
2018-11-02T01:09:52.267Z,1000.08
2018-11-02T01:10:52.225Z,1000.11
2018-11-02T01:11:52.214Z,1000.14
2018-11-02T01:12:52.214Z,1000.20
2018-11-02T01:13:52.192Z,1000.19
2018-11-02T01:14:52.208Z,1000.22
2018-11-02T01:15:52.168Z,1000.18
2018-11-02T01:16:52.273Z,1000.26
2018-11-02T01:17:52.144Z,1000.27
2018-11-02T01:18:52.141Z,1000.29
2018-11-02T01:19:52.158Z,1000.26
2018-11-02T01:20:52.109Z,1000.33
2018-11-02T01:21:52.106Z,1000.50
2018-11-02T01:22:52.086Z,1000.46
2018-11-02T01:23:52.076Z,1000.60
2018-11-02T01:24:52.069Z,1000.54
2018-11-02T01:25:52.076Z,1000.57
2018-11-02T01:26:52.045Z,1000.63
2018-11-02T01:27:52.027Z,1000.71
2018-11-02T01:28:52.016Z,1000.71
2018-11-02T01:29:52.012Z,1000.73
2018-11-02T01:30:51.990Z,1000.67
2018-11-02T01:31:52.013Z,1000.69
2018-11-02T01:32:51.966Z,1000.71
2018-11-02T01:33:51.956Z,1000.71
2018-11-02T01:34:51.948Z,1000.75
2018-11-02T01:35:51.936Z,1000.77
2018-11-02T01:36:51.939Z,1000.80
2018-11-02T01:37:51.960Z,1000.77
2018-11-02T01:38:51.903Z,1000.77
2018-11-02T01:39:51.885Z,1000.83
2018-11-02T01:40:51.876Z,1000.90
2018-11-02T01:41:51.862Z,1000.86
2018-11-02T01:42:51.848Z,1000.90
2018-11-02T01:43:51.862Z,1000.89
2018-11-02T01:44:51.826Z,1000.88
2018-11-02T01:45:51.812Z,1000.90
2018-11-02T01:46:51.807Z,1000.89
2018-11-02T01:47:51.817Z,1000.85
2018-11-02T01:48:51.800Z,1000.83
2018-11-02T01:49:51.770Z,1000.82
2018-11-02T01:50:51.755Z,1000.84
2018-11-02T01:51:51.750Z,1000.79
2018-11-02T01:52:51.733Z,1000.79
2018-11-02T01:53:51.755Z,1000.82
2018-11-02T01:54:51.705Z,1000.85
2018-11-02T01:55:51.700Z,1000.83
2018-11-02T01:56:51.686Z,1000.84
2018-11-02T01:57:51.670Z,1000.89
2018-11-02T01:58:51.667Z,1000.98
2018-11-02T01:59:51.670Z,1001.06
2018-11-02T02:00:51.642Z,1001.01
2018-11-02T02:01:51.636Z,1001.08
2018-11-02T02:02:51.614Z,1001.13
2018-11-02T02:03:51.609Z,1001.14
2018-11-02T02:04:51.615Z,1001.14
2018-11-02T02:05:51.638Z,1001.19
2018-11-02T02:06:51.571Z,1001.18
2018-11-02T02:07:51.556Z,1001.26
2018-11-02T02:08:51.543Z,1001.23
2018-11-02T02:09:51.528Z,1001.26
2018-11-02T02:10:51.549Z,1001.24
2018-11-02T02:11:51.506Z,1001.22
2018-11-02T02:12:51.513Z,1001.23
2018-11-02T02:13:51.490Z,1001.33
2018-11-02T02:14:51.468Z,1001.20
2018-11-02T02:15:51.463Z,1001.21
2018-11-02T02:16:51.447Z,1001.21
2018-11-02T02:17:51.459Z,1001.25
2018-11-02T02:18:51.424Z,1001.18
2018-11-02T02:19:51.416Z,1001.24
2018-11-02T02:20:51.401Z,1001.28
2018-11-02T02:21:51.384Z,1001.27
2018-11-02T02:22:51.405Z,1001.25
2018-11-02T02:23:51.363Z,1001.32
2018-11-02T02:24:51.371Z,1001.31
2018-11-02T02:25:51.346Z,1001.29
2018-11-02T02:26:51.325Z,1001.31
2018-11-02T02:27:51.331Z,1001.34
2018-11-02T02:28:51.310Z,1001.39
2018-11-02T02:29:51.290Z,1001.35
2018-11-02T02:30:51.286Z,1001.41
2018-11-02T02:31:51.276Z,1001.41
2018-11-02T02:32:51.275Z,1001.41
2018-11-02T02:33:51.253Z,1001.44
2018-11-02T02:34:51.236Z,1001.52
2018-11-02T02:35:51.222Z,1001.53
2018-11-02T02:36:51.213Z,1001.54
2018-11-02T02:37:51.221Z,1001.55
2018-11-02T02:38:51.194Z,1001.51
2018-11-02T02:39:51.177Z,1001.39
2018-11-02T02:40:51.162Z,1001.44
2018-11-02T02:41:51.153Z,1001.45
2018-11-02T02:42:51.158Z,1001.55
2018-11-02T02:43:51.130Z,1001.48
2018-11-02T02:44:51.163Z,1001.51
2018-11-02T02:45:51.104Z,1001.61
2018-11-02T02:46:51.099Z,1001.47
2018-11-02T02:47:51.104Z,1001.46
2018-11-02T02:48:51.075Z,1001.45
2018-11-02T02:49:51.062Z,1001.47
2018-11-02T02:50:51.051Z,1001.44
2018-11-02T02:51:51.032Z,1001.40
2018-11-02T02:52:51.047Z,1001.51
2018-11-02T02:53:51.007Z,1001.51
2018-11-02T02:54:51.005Z,1001.54
2018-11-02T02:55:50.993Z,1001.61
2018-11-02T02:56:50.980Z,1001.77
2018-11-02T02:57:50.999Z,1001.65
2018-11-02T02:58:50.949Z,1001.72
2018-11-02T02:59:50.937Z,1001.68
2018-11-02T03:00:50.937Z,1001.73
2018-11-02T03:01:50.914Z,1001.78
2018-11-02T03:02:50.932Z,1001.78
2018-11-02T03:03:50.899Z,1001.79
2018-11-02T03:04:50.881Z,1001.81
2018-11-02T03:05:50.876Z,1001.86
2018-11-02T03:06:50.859Z,1001.81
2018-11-02T03:07:50.875Z,1001.80
2018-11-02T03:08:50.839Z,1001.85
2018-11-02T03:09:50.823Z,1001.90
2018-11-02T03:10:50.972Z,1001.90
2018-11-02T03:11:50.804Z,1001.97
2018-11-02T03:12:50.809Z,1002.01
2018-11-02T03:13:50.780Z,1002.09
2018-11-02T03:14:50.766Z,1002.13
2018-11-02T03:15:50.761Z,1002.07
2018-11-02T03:16:50.741Z,1002.26
2018-11-02T03:17:50.752Z,1002.05
2018-11-02T03:18:50.783Z,1002.06
2018-11-02T03:19:50.702Z,1002.14
2018-11-02T03:20:50.703Z,1002.10
2018-11-02T03:21:50.685Z,1002.06
2018-11-02T03:22:50.692Z,1002.05
2018-11-02T03:23:50.663Z,1002.12
2018-11-02T03:24:50.651Z,1002.04
2018-11-02T03:25:50.635Z,1002.11
2018-11-02T03:26:50.631Z,1002.05
2018-11-02T03:27:50.638Z,1002.22
2018-11-02T03:28:50.605Z,1002.19
2018-11-02T03:29:50.601Z,1002.21
2018-11-02T03:30:50.577Z,1002.18
2018-11-02T03:31:50.565Z,1002.26
2018-11-02T03:32:50.641Z,1002.38
2018-11-02T03:33:50.541Z,1002.37
2018-11-02T03:34:50.537Z,1002.22
2018-11-02T03:35:50.526Z,1002.25
2018-11-02T03:36:50.513Z,1002.27
2018-11-02T03:37:50.521Z,1002.24
2018-11-02T03:38:50.492Z,1002.12
2018-11-02T03:39:50.476Z,1002.25
2018-11-02T03:40:50.466Z,1002.20
2018-11-02T03:41:50.478Z,1002.28
2018-11-02T03:42:50.466Z,1002.24
2018-11-02T03:43:50.431Z,1002.23
2018-11-02T03:44:50.440Z,1002.35
2018-11-02T03:45:50.407Z,1002.27
2018-11-02T03:46:50.395Z,1002.36
2018-11-02T03:47:50.401Z,1002.32
2018-11-02T03:48:50.370Z,1002.39
2018-11-02T03:49:50.357Z,1002.44
2018-11-02T03:50:50.349Z,1002.50
2018-11-02T03:51:50.342Z,1002.52
2018-11-02T03:52:50.357Z,1002.57
2018-11-02T03:53:50.319Z,1002.57
2018-11-02T03:54:50.720Z,1002.57
2018-11-02T03:55:50.287Z,1002.77
2018-11-02T03:56:50.360Z,1002.70
2018-11-02T03:57:50.269Z,1002.76
2018-11-02T03:58:50.277Z,1002.85
2018-11-02T03:59:50.238Z,1002.80
2018-11-02T04:00:50.234Z,1002.84
2018-11-02T04:01:50.217Z,1002.85
2018-11-02T04:02:50.207Z,1002.95
2018-11-02T04:03:50.216Z,1002.94
2018-11-02T04:04:50.189Z,1002.91
2018-11-02T04:05:50.170Z,1002.97
2018-11-02T04:06:50.164Z,1002.95
2018-11-02T04:07:50.150Z,1003.06
2018-11-02T04:08:50.150Z,1002.99
2018-11-02T04:09:50.127Z,1003.05
2018-11-02T04:10:50.109Z,1003.01
2018-11-02T04:11:50.102Z,1003.00
2018-11-02T04:12:50.083Z,1003.00
2018-11-02T04:13:50.094Z,1003.08
2018-11-02T04:14:50.063Z,1003.04
2018-11-02T04:15:50.050Z,1003.12
2018-11-02T04:16:50.043Z,1003.08
2018-11-02T04:17:50.028Z,1003.05
2018-11-02T04:18:50.034Z,1003.09
2018-11-02T04:19:50.008Z,1003.05
2018-11-02T04:20:49.986Z,1003.05
2018-11-02T04:21:49.980Z,1003.04
2018-11-02T04:22:49.969Z,1003.12
2018-11-02T04:23:49.973Z,1003.07
2018-11-02T04:24:49.952Z,1003.08
2018-11-02T04:25:49.935Z,1003.16
2018-11-02T04:26:49.922Z,1003.20
2018-11-02T04:27:49.913Z,1003.34
2018-11-02T04:28:49.921Z,1003.17
2018-11-02T04:29:49.886Z,1003.20
2018-11-02T04:30:49.969Z,1003.22
2018-11-02T04:31:49.866Z,1003.26
2018-11-02T04:32:49.846Z,1003.27
2018-11-02T04:33:49.867Z,1003.32
2018-11-02T04:34:49.827Z,1003.28
2018-11-02T04:35:49.818Z,1003.30
2018-11-02T04:36:49.797Z,1003.38
2018-11-02T04:37:49.798Z,1003.36
2018-11-02T04:38:49.780Z,1003.37
2018-11-02T04:39:49.796Z,1003.44
2018-11-02T04:40:49.758Z,1003.42
2018-11-02T04:41:49.747Z,1003.42
2018-11-02T04:42:49.731Z,1003.42
2018-11-02T04:43:49.714Z,1003.51
2018-11-02T04:44:49.712Z,1003.47
2018-11-02T04:45:49.716Z,1003.50
2018-11-02T04:46:49.682Z,1003.50
2018-11-02T04:47:49.676Z,1003.53
2018-11-02T04:48:49.655Z,1003.52
2018-11-02T04:49:49.646Z,1003.66
2018-11-02T04:50:49.705Z,1003.66
2018-11-02T04:51:49.625Z,1003.62
2018-11-02T04:52:49.610Z,1003.64
2018-11-02T04:53:49.601Z,1003.81
2018-11-02T04:54:49.592Z,1003.70
2018-11-02T04:55:49.611Z,1003.85
2018-11-02T04:56:49.567Z,1003.81
2018-11-02T04:57:49.555Z,1003.80
2018-11-02T04:58:49.536Z,1003.80
2018-11-02T04:59:49.532Z,1003.88
2018-11-02T05:00:49.513Z,1003.88
2018-11-02T05:01:49.523Z,1003.84
2018-11-02T05:02:49.496Z,1003.91
2018-11-02T05:03:49.476Z,1003.98
2018-11-02T05:04:49.474Z,1004.04
2018-11-02T05:05:49.491Z,1003.97
2018-11-02T05:06:49.464Z,1004.00
2018-11-02T05:07:49.437Z,1004.15
2018-11-02T05:08:49.422Z,1004.05
2018-11-02T05:09:49.482Z,1004.05
2018-11-02T05:10:49.393Z,1004.10
2018-11-02T05:11:49.402Z,1004.16
2018-11-02T05:12:49.377Z,1004.20
2018-11-02T05:13:49.376Z,1004.21
2018-11-02T05:14:49.349Z,1004.15
2018-11-02T05:15:49.334Z,1004.23
2018-11-02T05:16:49.352Z,1004.27
2018-11-02T05:17:49.340Z,1004.33
2018-11-02T05:18:49.301Z,1004.27
2018-11-02T05:19:49.294Z,1004.34
2018-11-02T05:20:49.275Z,1004.32
2018-11-02T05:21:49.289Z,1004.41
2018-11-02T05:22:49.257Z,1004.37
2018-11-02T05:23:49.243Z,1004.50
2018-11-02T05:24:49.230Z,1004.44
2018-11-02T05:25:49.225Z,1004.51
2018-11-02T05:26:49.231Z,1004.54
2018-11-02T05:27:49.200Z,1004.60
2018-11-02T05:28:49.181Z,1004.62
2018-11-02T05:29:49.184Z,1004.64
2018-11-02T05:30:49.161Z,1004.73
2018-11-02T05:31:49.178Z,1004.76
2018-11-02T05:32:49.133Z,1004.73
2018-11-02T05:33:49.137Z,1004.72
2018-11-02T05:34:49.109Z,1004.80
2018-11-02T05:35:49.097Z,1004.81
2018-11-02T05:36:49.116Z,1004.83
2018-11-02T05:37:49.074Z,1004.86
2018-11-02T05:38:49.074Z,1004.88
2018-11-02T05:39:49.052Z,1004.88
2018-11-02T05:40:49.038Z,1004.94
2018-11-02T05:41:49.055Z,1004.94
2018-11-02T05:42:49.014Z,1004.96
2018-11-02T05:43:49.010Z,1005.05
2018-11-02T05:44:48.996Z,1004.99
2018-11-02T05:45:48.979Z,1005.02
2018-11-02T05:46:48.996Z,1005.16
2018-11-02T05:47:48.973Z,1005.14
2018-11-02T05:48:48.954Z,1005.19
2018-11-02T05:49:48.936Z,1005.10
2018-11-02T05:50:48.945Z,1005.17
2018-11-02T05:51:48.943Z,1005.17
2018-11-02T05:52:48.917Z,1005.22
2018-11-02T05:53:49.570Z,1005.28
2018-11-02T05:54:48.882Z,1005.33
2018-11-02T05:55:48.891Z,1005.23
2018-11-02T05:56:48.883Z,1005.31
2018-11-02T05:57:48.844Z,1005.36
2018-11-02T05:58:48.851Z,1005.32
2018-11-02T05:59:48.820Z,1005.39
2018-11-02T06:00:48.804Z,1005.39
2018-11-02T06:01:48.822Z,1005.44
2018-11-02T06:02:48.775Z,1005.36
2018-11-02T06:03:48.767Z,1005.45
2018-11-02T06:04:48.760Z,1005.42
2018-11-02T06:05:48.747Z,1005.52
2018-11-02T06:06:48.746Z,1005.45
2018-11-02T06:07:48.828Z,1005.50
2018-11-02T06:08:48.722Z,1005.51
2018-11-02T06:09:48.692Z,1005.55
2018-11-02T06:10:48.688Z,1005.58
2018-11-02T06:11:48.698Z,1005.53
2018-11-02T06:12:48.664Z,1005.65
2018-11-02T06:13:48.653Z,1005.56
2018-11-02T06:14:48.635Z,1005.66
2018-11-02T06:15:48.645Z,1005.58
2018-11-02T06:16:48.741Z,1005.66
2018-11-02T06:17:48.598Z,1005.65
2018-11-02T06:18:48.588Z,1005.70
2018-11-02T06:19:48.618Z,1005.69
2018-11-02T06:20:48.586Z,1005.77
2018-11-02T06:21:48.578Z,1005.82
2018-11-02T06:22:48.542Z,1005.75
2018-11-02T06:23:48.530Z,1005.87
2018-11-02T06:24:48.547Z,1005.93
2018-11-02T06:25:48.507Z,1005.95
2018-11-02T06:26:48.570Z,1005.93
2018-11-02T06:27:48.480Z,1005.93
2018-11-02T06:28:48.469Z,1005.90
2018-11-02T06:29:48.456Z,1005.90
2018-11-02T06:30:48.453Z,1005.96
2018-11-02T06:31:48.478Z,1006.02
2018-11-02T06:32:48.555Z,1005.94
2018-11-02T06:33:48.417Z,1005.99
2018-11-02T06:34:48.402Z,1006.01
2018-11-02T06:35:48.387Z,1006.03
2018-11-02T06:36:48.399Z,1006.06
2018-11-02T06:37:48.362Z,1006.07
2018-11-02T06:38:48.400Z,1006.18
2018-11-02T06:39:48.342Z,1006.18
2018-11-02T06:40:48.327Z,1006.18
2018-11-02T06:41:48.340Z,1006.30
2018-11-02T06:42:48.306Z,1006.25
2018-11-02T06:43:48.291Z,1006.34
2018-11-02T06:44:48.315Z,1006.33
2018-11-02T06:45:48.270Z,1006.39
2018-11-02T06:46:48.279Z,1006.35
2018-11-02T06:47:48.248Z,1006.36
2018-11-02T06:48:48.234Z,1006.37
2018-11-02T06:49:48.224Z,1006.44
2018-11-02T06:50:48.293Z,1006.46
2018-11-02T06:51:48.222Z,1006.45
2018-11-02T06:52:48.187Z,1006.49
2018-11-02T06:53:48.172Z,1006.46
2018-11-02T06:54:48.168Z,1006.46
2018-11-02T06:55:48.151Z,1006.54
2018-11-02T06:56:48.162Z,1006.59
2018-11-02T06:57:48.132Z,1006.60
2018-11-02T06:58:48.112Z,1006.64
2018-11-02T06:59:48.393Z,1006.68
2018-11-02T07:00:48.091Z,1006.67
2018-11-02T07:01:48.099Z,1006.70
2018-11-02T07:02:48.074Z,1006.69
2018-11-02T07:03:48.056Z,1006.68
2018-11-02T07:04:48.052Z,1006.71
2018-11-02T07:05:48.036Z,1006.77
2018-11-02T07:06:48.037Z,1006.77
2018-11-02T07:07:48.097Z,1006.76
2018-11-02T07:08:48.000Z,1006.81
2018-11-02T07:09:48.013Z,1006.86
2018-11-02T07:10:47.969Z,1006.82
2018-11-02T07:11:47.985Z,1006.87
2018-11-02T07:12:47.948Z,1006.88
2018-11-02T07:13:47.933Z,1006.86
2018-11-02T07:14:47.933Z,1006.95
2018-11-02T07:15:47.915Z,1006.91
2018-11-02T07:16:47.921Z,1006.99
2018-11-02T07:17:47.888Z,1007.00
2018-11-02T07:18:47.880Z,1006.99
2018-11-02T07:19:47.867Z,1007.03
2018-11-02T07:20:47.854Z,1007.00
2018-11-02T07:21:47.869Z,1007.10
2018-11-02T07:22:47.836Z,1007.05
2018-11-02T07:23:47.824Z,1007.11
2018-11-02T07:24:47.821Z,1007.10
2018-11-02T07:25:47.790Z,1007.05
2018-11-02T07:26:47.808Z,1007.12
2018-11-02T07:27:47.778Z,1007.10
2018-11-02T07:28:47.760Z,1007.07
2018-11-02T07:29:47.755Z,1007.15
2018-11-02T07:30:47.733Z,1007.20
2018-11-02T07:31:47.739Z,1007.22
2018-11-02T07:32:47.716Z,1007.23
2018-11-02T07:33:47.696Z,1007.29
2018-11-02T07:34:47.692Z,1007.28
2018-11-02T07:35:47.681Z,1007.33
2018-11-02T07:36:47.680Z,1007.32
2018-11-02T07:37:47.657Z,1007.29
2018-11-02T07:38:47.641Z,1007.34
2018-11-02T07:39:47.638Z,1007.32
2018-11-02T07:40:47.617Z,1007.37
2018-11-02T07:41:47.632Z,1007.38
2018-11-02T07:42:47.593Z,1007.39
2018-11-02T07:43:47.578Z,1007.41
2018-11-02T07:44:47.588Z,1007.44
2018-11-02T07:45:47.555Z,1007.42
2018-11-02T07:46:47.572Z,1007.45
2018-11-02T07:47:47.565Z,1007.41
2018-11-02T07:48:47.526Z,1007.40
2018-11-02T07:49:47.607Z,1007.49
2018-11-02T07:50:47.503Z,1007.45
2018-11-02T07:51:47.512Z,1007.47
2018-11-02T07:52:47.476Z,1007.50
2018-11-02T07:53:47.466Z,1007.53
2018-11-02T07:54:47.452Z,1007.50
2018-11-02T07:55:47.438Z,1007.53
2018-11-02T07:56:47.456Z,1007.54
2018-11-02T07:57:47.495Z,1007.52
2018-11-02T07:58:47.432Z,1007.50
2018-11-02T07:59:47.400Z,1007.51
2018-11-02T08:00:47.379Z,1007.60
2018-11-02T08:01:47.486Z,1007.62
2018-11-02T08:02:47.356Z,1007.59
2018-11-02T08:03:47.350Z,1007.56
2018-11-02T08:04:47.336Z,1007.72
2018-11-02T08:05:47.321Z,1007.72
2018-11-02T08:06:47.341Z,1007.66
2018-11-02T08:07:47.302Z,1007.73
2018-11-02T08:08:47.296Z,1007.74
2018-11-02T08:09:47.287Z,1007.72
2018-11-02T08:10:47.264Z,1007.79
2018-11-02T08:11:47.282Z,1007.89
2018-11-02T08:12:47.241Z,1007.89
2018-11-02T08:13:47.232Z,1007.85
2018-11-02T08:14:47.224Z,1007.82
2018-11-02T08:15:47.205Z,1007.91
2018-11-02T08:16:47.224Z,1007.93
2018-11-02T08:17:47.317Z,1007.79
2018-11-02T08:18:47.182Z,1007.81
2018-11-02T08:19:47.164Z,1007.84
2018-11-02T08:20:47.155Z,1007.86
2018-11-02T08:21:47.161Z,1007.86
2018-11-02T08:22:47.135Z,1008.15
2018-11-02T08:23:47.120Z,1008.13
2018-11-02T08:24:47.105Z,1008.04
2018-11-02T08:25:47.096Z,1008.03
2018-11-02T08:26:47.109Z,1008.10
2018-11-02T08:27:47.067Z,1008.09
2018-11-02T08:28:47.065Z,1008.24
2018-11-02T08:29:47.045Z,1008.29
2018-11-02T08:30:47.043Z,1008.28
2018-11-02T08:31:47.051Z,1008.32
2018-11-02T08:32:47.013Z,1008.36
2018-11-02T08:33:47.006Z,1008.40
2018-11-02T08:34:46.985Z,1008.39
2018-11-02T08:35:46.975Z,1008.27
2018-11-02T08:36:46.996Z,1008.39
2018-11-02T08:37:46.953Z,1008.33
2018-11-02T08:38:46.949Z,1008.34
2018-11-02T08:39:46.938Z,1008.37
2018-11-02T08:40:46.917Z,1008.41
2018-11-02T08:41:46.935Z,1008.47
2018-11-02T08:42:46.899Z,1008.49
2018-11-02T08:43:46.886Z,1008.56
2018-11-02T08:44:46.878Z,1008.46
2018-11-02T08:45:46.867Z,1008.51
2018-11-02T08:46:46.877Z,1008.28
2018-11-02T08:47:46.845Z,1008.24
2018-11-02T08:48:46.826Z,1008.32
2018-11-02T08:49:46.819Z,1008.31
2018-11-02T08:50:46.805Z,1008.35
2018-11-02T08:51:46.815Z,1008.18
2018-11-02T08:52:46.785Z,1008.17
2018-11-02T08:53:46.771Z,1008.06
2018-11-02T08:54:46.762Z,1008.03
2018-11-02T08:55:46.754Z,1008.11
2018-11-02T08:56:46.763Z,1008.13
2018-11-02T08:57:46.808Z,1008.06
2018-11-02T08:58:47.003Z,1008.06
2018-11-02T08:59:46.805Z,1008.08
2018-11-02T09:00:46.697Z,1008.11
2018-11-02T09:01:46.694Z,1008.15
2018-11-02T09:02:46.673Z,1008.24
2018-11-02T09:03:46.660Z,1008.21
2018-11-02T09:04:46.693Z,1008.21
2018-11-02T09:05:46.673Z,1008.34
2018-11-02T09:06:46.647Z,1008.28
2018-11-02T09:07:46.613Z,1008.36
2018-11-02T09:08:46.598Z,1008.41
2018-11-02T09:09:46.586Z,1008.60
2018-11-02T09:10:46.582Z,1008.43
2018-11-02T09:11:46.584Z,1008.79
2018-11-02T09:12:46.549Z,1008.78
2018-11-02T09:13:46.550Z,1008.46
2018-11-02T09:14:46.532Z,1008.75
2018-11-02T09:15:46.516Z,1008.40
2018-11-02T09:16:46.531Z,1008.63
2018-11-02T09:17:46.499Z,1008.44
2018-11-02T09:18:46.758Z,1008.45
2018-11-02T09:19:46.469Z,1008.39
2018-11-02T09:20:46.467Z,1008.34
2018-11-02T09:21:46.476Z,1008.48
2018-11-02T09:22:46.440Z,1008.49
2018-11-02T09:23:46.426Z,1008.44
2018-11-02T09:24:46.415Z,1008.54
2018-11-02T09:25:46.408Z,1008.51
2018-11-02T09:26:46.407Z,1008.53
2018-11-02T09:27:46.402Z,1008.51
2018-11-02T09:28:46.366Z,1008.48
2018-11-02T09:29:46.353Z,1008.56
2018-11-02T09:30:46.349Z,1008.61
2018-11-02T09:31:46.349Z,1008.61
2018-11-02T09:32:46.330Z,1008.71
2018-11-02T09:33:46.326Z,1008.70
2018-11-02T09:34:46.303Z,1008.66
2018-11-02T09:35:46.297Z,1008.73
2018-11-02T09:36:46.292Z,1008.75
2018-11-02T09:37:46.272Z,1008.79
2018-11-02T09:38:46.248Z,1008.77
2018-11-02T09:39:46.236Z,1008.78
2018-11-02T09:40:46.234Z,1008.79
2018-11-02T09:41:46.234Z,1008.84
2018-11-02T09:42:46.354Z,1008.89
2018-11-02T09:43:46.199Z,1008.90
2018-11-02T09:44:46.178Z,1008.89
2018-11-02T09:45:46.190Z,1008.92
2018-11-02T09:46:46.175Z,1008.93
2018-11-02T09:47:46.151Z,1008.96
2018-11-02T09:48:46.131Z,1008.99
2018-11-02T09:49:46.130Z,1009.08
2018-11-02T09:50:46.107Z,1009.01
2018-11-02T09:51:46.236Z,1008.98
2018-11-02T09:52:46.092Z,1009.06
2018-11-02T09:53:46.073Z,1009.07
2018-11-02T09:54:46.069Z,1009.09
2018-11-02T09:55:46.053Z,1009.13
2018-11-02T09:56:46.063Z,1009.47
2018-11-02T09:57:46.127Z,1009.55
2018-11-02T09:58:46.020Z,1009.21
2018-11-02T09:59:46.015Z,1009.51
2018-11-02T10:00:46.000Z,1009.53
2018-11-02T10:01:46.009Z,1009.59
2018-11-02T10:02:45.976Z,1009.61
2018-11-02T10:03:45.958Z,1009.39
2018-11-02T10:04:45.953Z,1009.62
2018-11-02T10:05:45.933Z,1009.61
2018-11-02T10:06:45.953Z,1009.42
2018-11-02T10:07:45.914Z,1009.41
2018-11-02T10:08:45.904Z,1009.37
2018-11-02T10:09:45.892Z,1009.42
2018-11-02T10:10:45.882Z,1009.73
2018-11-02T10:11:45.884Z,1009.72
2018-11-02T10:12:45.861Z,1009.68
2018-11-02T10:13:45.849Z,1009.79
2018-11-02T10:14:45.833Z,1009.85
2018-11-02T10:15:45.821Z,1009.85
2018-11-02T10:16:45.833Z,1009.86
2018-11-02T10:17:45.803Z,1009.83
2018-11-02T10:18:45.784Z,1009.77
2018-11-02T10:19:45.776Z,1009.84
2018-11-02T10:20:45.768Z,1009.87
2018-11-02T10:21:45.779Z,1009.90
2018-11-02T10:22:45.740Z,1009.88
2018-11-02T10:23:45.779Z,1009.89
2018-11-02T10:24:45.726Z,1009.64
2018-11-02T10:25:45.711Z,1009.62
2018-11-02T10:26:45.717Z,1009.82
2018-11-02T10:27:45.685Z,1009.93
2018-11-02T10:28:45.676Z,1009.87
2018-11-02T10:29:45.686Z,1009.99
2018-11-02T10:30:45.655Z,1009.66
2018-11-02T10:31:45.665Z,1009.64
2018-11-02T10:32:45.629Z,1009.87
2018-11-02T10:33:45.621Z,1010.05
2018-11-02T10:34:45.607Z,1010.00
2018-11-02T10:35:45.660Z,1010.05
2018-11-02T10:36:45.612Z,1010.05
2018-11-02T10:37:45.570Z,1010.07
2018-11-02T10:38:45.566Z,1010.04
2018-11-02T10:39:45.677Z,1010.05
2018-11-02T10:40:45.536Z,1009.86
2018-11-02T10:41:45.563Z,1009.99
2018-11-02T10:42:45.514Z,1009.96
2018-11-02T10:43:45.509Z,1010.01
2018-11-02T10:44:45.506Z,1010.03
2018-11-02T10:45:45.483Z,1009.91
2018-11-02T10:46:45.471Z,1009.86
2018-11-02T10:47:45.480Z,1009.95
2018-11-02T10:48:45.450Z,1010.07
2018-11-02T10:49:45.436Z,1009.88
2018-11-02T10:50:45.427Z,1009.89
2018-11-02T10:51:45.420Z,1010.11
2018-11-02T10:52:45.419Z,1010.11
2018-11-02T10:53:45.396Z,1010.12
2018-11-02T10:54:45.431Z,1010.05
2018-11-02T10:55:45.364Z,1009.97
2018-11-02T10:56:45.458Z,1010.08
2018-11-02T10:57:45.462Z,1009.87
2018-11-02T10:58:45.341Z,1010.17
2018-11-02T10:59:45.324Z,1010.20
2018-11-02T11:00:45.355Z,1010.20
2018-11-02T11:01:45.308Z,1010.22
2018-11-02T11:02:45.313Z,1010.19
2018-11-02T11:03:45.279Z,1010.23
2018-11-02T11:04:45.267Z,1010.31
2018-11-02T11:05:45.258Z,1010.14
2018-11-02T11:06:45.243Z,1010.28
2018-11-02T11:07:45.257Z,1010.32
2018-11-02T11:08:45.224Z,1010.20
2018-11-02T11:09:45.215Z,1010.12
2018-11-02T11:10:45.200Z,1010.22
2018-11-02T11:11:45.442Z,1010.15
2018-11-02T11:12:45.508Z,1010.19
2018-11-02T11:13:45.829Z,1010.11
2018-11-02T11:14:45.152Z,1010.08
2018-11-02T11:15:45.146Z,1010.19
2018-11-02T11:16:45.131Z,1010.06
2018-11-02T17:16:37.203Z,1013.71
2018-11-02T17:17:37.175Z,1013.72
2018-11-02T17:18:37.176Z,1013.73
2018-11-02T17:19:37.152Z,1013.81
2018-11-02T17:20:37.140Z,1013.74
2018-11-02T17:21:37.182Z,1013.78
2018-11-02T17:22:37.117Z,1013.81
2018-11-02T17:23:37.137Z,1013.81
2018-11-02T17:24:37.089Z,1013.85
2018-11-02T17:25:37.075Z,1013.91
2018-11-02T17:26:37.068Z,1013.92
2018-11-02T17:27:37.055Z,1014.01
2018-11-02T17:28:37.065Z,1014.03
2018-11-02T17:29:37.026Z,1014.03
2018-11-02T17:30:37.024Z,1014.05
2018-11-02T17:31:37.004Z,1014.01
2018-11-02T17:32:37.000Z,1014.04
2018-11-02T17:33:37.002Z,1014.13
2018-11-02T17:34:36.973Z,1014.13
2018-11-02T17:35:36.963Z,1014.14
2018-11-02T17:36:36.998Z,1014.12
2018-11-02T17:37:36.944Z,1014.13
2018-11-02T17:38:36.944Z,1014.12
2018-11-02T17:39:36.919Z,1014.14
2018-11-02T17:40:36.897Z,1014.16
2018-11-02T17:41:36.894Z,1014.13
2018-11-02T17:42:36.874Z,1014.20
2018-11-02T17:43:36.946Z,1014.23
2018-11-02T17:44:36.850Z,1014.24
2018-11-02T17:45:36.840Z,1014.24
2018-11-02T17:46:36.830Z,1014.24
2018-11-02T17:47:36.852Z,1014.23
2018-11-02T17:48:36.829Z,1014.24
2018-11-02T17:49:36.794Z,1014.22
2018-11-02T17:50:36.789Z,1014.25
2018-11-02T17:51:36.769Z,1014.26
2018-11-02T17:52:36.769Z,1014.30
2018-11-02T17:53:36.775Z,1014.28
2018-11-02T17:54:36.733Z,1014.29
2018-11-02T17:55:36.730Z,1014.32
2018-11-02T17:56:36.708Z,1014.41
2018-11-02T17:57:36.697Z,1014.45
2018-11-02T17:58:36.715Z,1014.46
2018-11-02T17:59:36.873Z,1014.48
2018-11-02T18:00:36.667Z,1014.47
2018-11-02T18:01:36.661Z,1014.51
2018-11-02T18:02:36.643Z,1014.54
2018-11-02T18:03:36.659Z,1014.51
2018-11-02T18:04:36.615Z,1014.51
2018-11-02T18:05:36.614Z,1014.48